< Typhoon 201310 2013 Season Typhoon 201312 >
Typhoon 201311 (UTOR)
General InformationTrack Information on Google MapsDetailed Wind InformationForecast History on Google MapsAccess Analytics MapList of All Images || NewsDisaster Info.WeblogTrackbackTyphoon FrontTwiphoonTyphoon Now!Typhoon ImaginationDisaster Info. XMLResourceGoogle EarthGE AnimationAtom FeedGeoJSON
Detalied Best Track (Time Zone = UTC)
Year Month Day Hour Lat. Long. Pressure (hPa) Wind (kt) Class Image Chart
2013 8 8 12 12.1 136.6 1008 0 2 Image Chart
2013 8 8 18 12.6 135.8 1006 0 2 Image Chart
2013 8 9 00 13.3 135.0 1006 0 2 Image Chart
2013 8 9 06 13.5 133.6 1004 0 2 Image Chart
2013 8 9 12 13.5 132.6 1004 0 2 Image Chart
2013 8 9 18 13.5 131.7 1002 35 3 Image Chart
2013 8 10 00 13.6 130.6 992 45 3 Image Chart
2013 8 10 06 13.9 129.2 965 70 5 Image Chart
2013 8 10 12 14.0 128.2 955 80 5 Image Chart
2013 8 10 18 14.2 127.0 955 80 5 Image Chart
2013 8 11 00 14.5 125.9 950 85 5 Image Chart
2013 8 11 06 15.1 124.8 940 90 5 Image Chart
2013 8 11 12 15.5 123.5 925 105 5 Image Chart
2013 8 11 18 16.1 122.2 935 95 5 Image Chart
2013 8 12 00 16.7 120.8 955 75 5 Image Chart
2013 8 12 06 17.2 119.2 965 70 5 Image Chart
2013 8 12 12 17.9 118.0 965 70 5 Image Chart
2013 8 12 18 18.0 116.5 965 70 5 Image Chart
2013 8 13 00 18.3 115.2 960 70 5 Image Chart
2013 8 13 06 18.8 114.1 960 70 5 Image Chart
2013 8 13 12 19.2 113.5 960 70 5 Image Chart
2013 8 13 18 19.6 112.9 960 70 5 Image Chart
2013 8 14 00 20.6 112.2 960 70 5 Image Chart
2013 8 14 06 21.6 112.0 965 65 5 Image Chart
2013 8 14 12 22.0 111.3 975 60 4 Image Chart
2013 8 14 18 22.5 111.2 985 45 3 Image Chart
2013 8 15 00 23.1 111.0 994 35 3 Image Chart
2013 8 15 06 23.7 111.0 994 35 3 Image Chart
2013 8 15 12 24.2 111.2 996 0 2 Image Chart
2013 8 15 18 24.5 111.4 996 0 2 Image Chart
2013 8 16 00 24.7 111.6 996 0 2 Image Chart
2013 8 16 06 24.8 111.5 996 0 2 Image Chart
2013 8 16 12 24.8 111.2 996 0 2 Image Chart
2013 8 16 18 24.7 110.8 996 0 2 Image Chart
2013 8 17 00 24.4 110.3 996 0 2 Image Chart
2013 8 17 06 23.9 110.1 996 0 2 Image Chart
2013 8 17 12 23.5 109.9 996 0 2 Image Chart
2013 8 17 18 23.2 109.6 996 0 2 Image Chart
2013 8 18 00 23.2 109.4 998 0 2 Image Chart
2013 8 18 06 23.1 109.1 998 0 2 Image Chart
Japan Meteorological Agency Best Track Data | Correction Date : 2013-09-10
< Typhoon 201310 2013 Season Typhoon 201312 >

Help